Terminal Aerodrome Forecast
Issued by NWS

Home | Current Version | Previous Version | Text Only | Print | Product List | Glossary On
Versions: 1 2 3 4 5 6 7 8 9 10 11 12 13 14 15 16 17 18 19 20 21 22 23 24 25 26 27 28
000
FTUS43 KDMX 301909 AAA
TAFFOD
TAF AMD
KFOD 301909Z 3019/0118 05018G25KT P6SM SCT015 BKN035
      TEMPO 3019/3022 5SM -SHRA BR SCT006 BKN015
     FM010000 05010KT 5SM BR OVC010
     FM010900 04008KT 3SM BR VCSH SCT004 OVC006=

USA.gov is the U.S. government's official web portal to all federal, state and local government web resources and services.